sensor_id;sensor_type;location;lat;lon;timestamp;pressure;altitude;pressure_sealevel;temperature;humidity
41234;BME280;26968;42.686;23.352;2022-09-03T00:02:42;95184.50;;;16.58;78.84
41234;BME280;26968;42.686;23.352;2022-09-03T00:05:23;95154.66;;;16.34;78.67
41234;BME280;26968;42.686;23.352;2022-09-03T00:08:05;95221.75;;;16.77;78.64
41234;BME280;26968;42.686;23.352;2022-09-03T00:10:53;95133.31;;;16.12;78.30
41234;BME280;26968;42.686;23.352;2022-09-03T00:13:36;95232.00;;;16.75;78.64
41234;BME280;26968;42.686;23.352;2022-09-03T00:16:07;95211.84;;;16.78;77.70
41234;BME280;26968;42.686;23.352;2022-09-03T00:18:37;95171.03;;;16.41;78.36
41234;BME280;26968;42.686;23.352;2022-09-03T00:21:13;95112.69;;;16.04;78.08
41234;BME280;26968;42.686;23.352;2022-09-03T00:23:41;95157.47;;;16.29;78.10
41234;BME280;26968;42.686;23.352;2022-09-03T00:31:19;95221.75;;;16.77;77.80
41234;BME280;26968;42.686;23.352;2022-09-03T00:33:55;95007.47;;;15.38;77.87
41234;BME280;26968;42.686;23.352;2022-09-03T00:36:37;95215.84;;;16.58;77.92
41234;BME280;26968;42.686;23.352;2022-09-03T00:39:12;94898.72;;;14.46;78.42
41234;BME280;26968;42.686;23.352;2022-09-03T00:41:40;95212.91;;;16.68;78.08
41234;BME280;26968;42.686;23.352;2022-09-03T00:46:59;95140.09;;;16.09;77.53
41234;BME280;26968;42.686;23.352;2022-09-03T01:00:41;95129.06;;;16.11;77.86
41234;BME280;26968;42.686;23.352;2022-09-03T01:09:11;95208.69;;;16.76;77.32
41234;BME280;26968;42.686;23.352;2022-09-03T01:25:38;95213.50;;;16.26;78.86
41234;BME280;26968;42.686;23.352;2022-09-03T01:31:12;95142.38;;;15.94;78.14
41234;BME280;26968;42.686;23.352;2022-09-03T01:36:47;95241.50;;;16.59;77.53
41234;BME280;26968;42.686;23.352;2022-09-03T01:39:45;95229.34;;;16.13;78.94
41234;BME280;26968;42.686;23.352;2022-09-03T01:45:11;95118.47;;;15.44;78.58
41234;BME280;26968;42.686;23.352;2022-09-03T01:50:35;95147.28;;;15.47;78.94
41234;BME280;26968;42.686;23.352;2022-09-03T01:53:24;95236.03;;;16.02;79.56
41234;BME280;26968;42.686;23.352;2022-09-03T01:56:07;95225.31;;;15.94;79.52
41234;BME280;26968;42.686;23.352;2022-09-03T01:58:48;95126.50;;;15.22;79.88
41234;BME280;26968;42.686;23.352;2022-09-03T02:01:31;95107.59;;;15.18;79.71
41234;BME280;26968;42.686;23.352;2022-09-03T02:03:58;95171.94;;;15.66;79.72
41234;BME280;26968;42.686;23.352;2022-09-03T02:06:26;95116.84;;;15.34;79.17
41234;BME280;26968;42.686;23.352;2022-09-03T02:08:52;95186.34;;;15.79;79.30
41234;BME280;26968;42.686;23.352;2022-09-03T02:11:18;95233.25;;;16.07;79.39
41234;BME280;26968;42.686;23.352;2022-09-03T02:13:47;95066.34;;;15.02;79.23
41234;BME280;26968;42.686;23.352;2022-09-03T02:16:17;94912.91;;;13.97;78.60
41234;BME280;26968;42.686;23.352;2022-09-03T02:18:49;95237.59;;;16.03;78.80
41234;BME280;26968;42.686;23.352;2022-09-03T02:21:17;94598.41;;;11.99;78.41
41234;BME280;26968;42.686;23.352;2022-09-03T02:23:44;94841.72;;;13.61;78.21
41234;BME280;26968;42.686;23.352;2022-09-03T02:26:12;95188.34;;;15.73;78.19
41234;BME280;26968;42.686;23.352;2022-09-03T02:28:40;95170.19;;;15.62;78.58
41234;BME280;26968;42.686;23.352;2022-09-03T02:31:06;95126.81;;;15.20;79.03
41234;BME280;26968;42.686;23.352;2022-09-03T02:33:38;95247.56;;;16.11;78.58
41234;BME280;26968;42.686;23.352;2022-09-03T02:36:06;95257.69;;;16.14;78.49
41234;BME280;26968;42.686;23.352;2022-09-03T02:38:33;95111.03;;;15.32;78.45
41234;BME280;26968;42.686;23.352;2022-09-03T02:40:58;95227.22;;;16.33;77.83
41234;BME280;26968;42.686;23.352;2022-09-03T02:43:38;95224.19;;;16.26;77.04
41234;BME280;26968;42.686;23.352;2022-09-03T02:46:09;95204.66;;;16.16;76.49
41234;BME280;26968;42.686;23.352;2022-09-03T02:48:36;95259.59;;;16.23;77.88
41234;BME280;26968;42.686;23.352;2022-09-03T02:51:02;95230.94;;;15.92;77.95
41234;BME280;26968;42.686;23.352;2022-09-03T02:53:28;95190.13;;;15.78;78.03
41234;BME280;26968;42.686;23.352;2022-09-03T02:56:00;95248.25;;;15.95;77.82
41234;BME280;26968;42.686;23.352;2022-09-03T02:58:26;95237.03;;;15.84;78.41
41234;BME280;26968;42.686;23.352;2022-09-03T03:00:52;95264.13;;;16.13;78.39
41234;BME280;26968;42.686;23.352;2022-09-03T03:03:18;95241.56;;;16.06;77.59
41234;BME280;26968;42.686;23.352;2022-09-03T03:05:51;95224.44;;;15.85;77.75
41234;BME280;26968;42.686;23.352;2022-09-03T03:08:19;95259.69;;;16.09;78.03
41234;BME280;26968;42.686;23.352;2022-09-03T03:10:50;95268.31;;;16.06;78.03
41234;BME280;26968;42.686;23.352;2022-09-03T03:13:16;95262.59;;;15.99;78.59
41234;BME280;26968;42.686;23.352;2022-09-03T03:15:42;95239.50;;;15.80;78.85
41234;BME280;26968;42.686;23.352;2022-09-03T03:18:07;95168.03;;;15.64;78.24
41234;BME280;26968;42.686;23.352;2022-09-03T03:20:36;95164.97;;;15.57;77.87
41234;BME280;26968;42.686;23.352;2022-09-03T03:23:03;95253.56;;;16.39;77.24
41234;BME280;26968;42.686;23.352;2022-09-03T03:25:39;95247.13;;;16.49;76.63
41234;BME280;26968;42.686;23.352;2022-09-03T03:28:05;95205.84;;;16.02;76.71
41234;BME280;26968;42.686;23.352;2022-09-03T03:30:32;95250.22;;;16.34;77.08
41234;BME280;26968;42.686;23.352;2022-09-03T03:32:58;95005.25;;;14.78;76.78
41234;BME280;26968;42.686;23.352;2022-09-03T03:35:24;95160.22;;;15.76;76.75
41234;BME280;26968;42.686;23.352;2022-09-03T03:37:50;95125.75;;;15.52;76.36
41234;BME280;26968;42.686;23.352;2022-09-03T03:40:16;94951.72;;;14.39;76.35
41234;BME280;26968;42.686;23.352;2022-09-03T03:42:42;95256.97;;;16.31;76.94
41234;BME280;26968;42.686;23.352;2022-09-03T03:45:08;95212.22;;;15.92;77.46
41234;BME280;26968;42.686;23.352;2022-09-03T03:47:36;95191.38;;;15.80;77.32
41234;BME280;26968;42.686;23.352;2022-09-03T03:50:03;95229.16;;;16.10;77.09
41234;BME280;26968;42.686;23.352;2022-09-03T03:52:28;95188.28;;;15.65;77.00
41234;BME280;26968;42.686;23.352;2022-09-03T03:54:54;95135.44;;;15.39;77.00
41234;BME280;26968;42.686;23.352;2022-09-03T03:57:21;95202.81;;;15.72;77.00
41234;BME280;26968;42.686;23.352;2022-09-03T03:59:47;95144.91;;;15.23;77.71
41234;BME280;26968;42.686;23.352;2022-09-03T04:02:14;95258.06;;;15.99;77.76
41234;BME280;26968;42.686;23.352;2022-09-03T04:04:40;95256.88;;;16.14;77.38
41234;BME280;26968;42.686;23.352;2022-09-03T04:07:06;94953.59;;;14.02;77.39
41234;BME280;26968;42.686;23.352;2022-09-03T04:09:32;95257.44;;;16.02;78.06
41234;BME280;26968;42.686;23.352;2022-09-03T04:11:58;95208.34;;;15.76;77.41
41234;BME280;26968;42.686;23.352;2022-09-03T04:14:24;95163.63;;;15.45;77.48
41234;BME280;26968;42.686;23.352;2022-09-03T04:16:50;95172.91;;;15.48;77.51
41234;BME280;26968;42.686;23.352;2022-09-03T04:19:16;95096.63;;;14.97;77.57
41234;BME280;26968;42.686;23.352;2022-09-03T04:21:42;95263.03;;;16.14;77.40
41234;BME280;26968;42.686;23.352;2022-09-03T04:24:08;95123.59;;;15.32;76.93
41234;BME280;26968;42.686;23.352;2022-09-03T04:26:33;95229.97;;;15.88;77.22
41234;BME280;26968;42.686;23.352;2022-09-03T04:29:02;95262.84;;;16.11;77.09
41234;BME280;26968;42.686;23.352;2022-09-03T04:31:28;95215.00;;;15.87;76.76
41234;BME280;26968;42.686;23.352;2022-09-03T04:33:54;95273.94;;;16.27;76.70
41234;BME280;26968;42.686;23.352;2022-09-03T04:36:21;95189.50;;;15.81;76.38
41234;BME280;26968;42.686;23.352;2022-09-03T04:38:49;95285.75;;;16.26;76.02
41234;BME280;26968;42.686;23.352;2022-09-03T04:41:18;95282.13;;;15.99;77.36
41234;BME280;26968;42.686;23.352;2022-09-03T04:43:44;94969.97;;;14.09;76.55
41234;BME280;26968;42.686;23.352;2022-09-03T04:46:11;95002.28;;;14.44;76.57
41234;BME280;26968;42.686;23.352;2022-09-03T04:48:37;95278.34;;;16.23;76.07
41234;BME280;26968;42.686;23.352;2022-09-03T04:51:11;95312.41;;;16.31;76.14
41234;BME280;26968;42.686;23.352;2022-09-03T04:53:42;95122.94;;;14.90;76.15
41234;BME280;26968;42.686;23.352;2022-09-03T04:56:19;95310.03;;;16.07;77.00
41234;BME280;26968;42.686;23.352;2022-09-03T04:58:45;95317.69;;;16.22;76.49
41234;BME280;26968;42.686;23.352;2022-09-03T05:01:15;95143.75;;;15.16;76.56
41234;BME280;26968;42.686;23.352;2022-09-03T05:03:42;95309.81;;;16.26;76.34
41234;BME280;26968;42.686;23.352;2022-09-03T05:06:07;95202.59;;;15.47;76.35
41234;BME280;26968;42.686;23.352;2022-09-03T05:08:34;95249.69;;;15.70;76.56
41234;BME280;26968;42.686;23.352;2022-09-03T05:11:04;95325.28;;;16.29;76.35
41234;BME280;26968;42.686;23.352;2022-09-03T05:13:31;95280.53;;;16.20;75.99
41234;BME280;26968;42.686;23.352;2022-09-03T05:16:03;95267.63;;;16.23;75.33
41234;BME280;26968;42.686;23.352;2022-09-03T05:18:29;95172.00;;;15.53;75.28
41234;BME280;26968;42.686;23.352;2022-09-03T05:21:05;95317.38;;;16.24;75.80
41234;BME280;26968;42.686;23.352;2022-09-03T05:23:34;95222.13;;;15.33;76.41
41234;BME280;26968;42.686;23.352;2022-09-03T05:26:01;95221.38;;;15.33;77.17
41234;BME280;26968;42.686;23.352;2022-09-03T05:28:28;95328.75;;;15.85;77.25
41234;BME280;26968;42.686;23.352;2022-09-03T05:33:24;95188.88;;;15.03;76.67
41234;BME280;26968;42.686;23.352;2022-09-03T05:35:49;95248.09;;;15.19;77.18
41234;BME280;26968;42.686;23.352;2022-09-03T05:38:15;95333.59;;;15.82;77.00
41234;BME280;26968;42.686;23.352;2022-09-03T05:40:42;95075.53;;;14.24;77.07
41234;BME280;26968;42.686;23.352;2022-09-03T05:43:07;94994.91;;;13.64;76.92
41234;BME280;26968;42.686;23.352;2022-09-03T05:45:32;95340.34;;;16.02;76.59
41234;BME280;26968;42.686;23.352;2022-09-03T05:47:59;95158.78;;;14.76;76.53
41234;BME280;26968;42.686;23.352;2022-09-03T05:50:25;95283.22;;;15.76;76.04
41234;BME280;26968;42.686;23.352;2022-09-03T05:52:51;95057.84;;;14.42;76.01
41234;BME280;26968;42.686;23.352;2022-09-03T05:55:17;95338.16;;;16.27;75.86
41234;BME280;26968;42.686;23.352;2022-09-03T05:57:43;95338.47;;;16.25;75.58
41234;BME280;26968;42.686;23.352;2022-09-03T06:00:10;95260.84;;;15.72;75.56
41234;BME280;26968;42.686;23.352;2022-09-03T06:02:36;95283.09;;;16.03;75.15
41234;BME280;26968;42.686;23.352;2022-09-03T06:05:02;95307.72;;;16.14;74.78
41234;BME280;26968;42.686;23.352;2022-09-03T06:07:28;95332.22;;;16.30;74.82
41234;BME280;26968;42.686;23.352;2022-09-03T06:09:53;95204.75;;;15.58;74.78
41234;BME280;26968;42.686;23.352;2022-09-03T06:12:19;95180.50;;;15.32;74.61
41234;BME280;26968;42.686;23.352;2022-09-03T06:14:44;95325.72;;;16.22;74.43
41234;BME280;26968;42.686;23.352;2022-09-03T06:17:10;95259.66;;;15.78;74.66
41234;BME280;26968;42.686;23.352;2022-09-03T06:19:37;94973.34;;;14.01;74.87
41234;BME280;26968;42.686;23.352;2022-09-03T06:22:03;95245.72;;;15.90;74.69
41234;BME280;26968;42.686;23.352;2022-09-03T06:24:28;95081.00;;;14.68;74.69
41234;BME280;26968;42.686;23.352;2022-09-03T06:26:57;95312.13;;;16.18;75.29
41234;BME280;26968;42.686;23.352;2022-09-03T06:29:22;95355.31;;;16.48;75.03
41234;BME280;26968;42.686;23.352;2022-09-03T06:31:47;95275.75;;;16.09;74.80
41234;BME280;26968;42.686;23.352;2022-09-03T06:34:15;95016.72;;;14.43;74.52
41234;BME280;26968;42.686;23.352;2022-09-03T06:36:43;95346.06;;;16.76;73.84
41234;BME280;26968;42.686;23.352;2022-09-03T06:39:08;95322.28;;;16.83;73.54
41234;BME280;26968;42.686;23.352;2022-09-03T06:41:34;95234.81;;;16.08;73.38
41234;BME280;26968;42.686;23.352;2022-09-03T06:44:05;95279.28;;;16.57;73.47
41234;BME280;26968;42.686;23.352;2022-09-03T06:46:36;95326.03;;;17.13;72.87
41234;BME280;26968;42.686;23.352;2022-09-03T06:49:03;95263.78;;;16.68;72.64
41234;BME280;26968;42.686;23.352;2022-09-03T06:51:31;95097.84;;;15.58;71.90
41234;BME280;26968;42.686;23.352;2022-09-03T06:54:02;95013.78;;;14.89;72.56
41234;BME280;26968;42.686;23.352;2022-09-03T06:56:28;95343.16;;;17.04;72.64
41234;BME280;26968;42.686;23.352;2022-09-03T06:58:59;94961.47;;;14.65;72.43
41234;BME280;26968;42.686;23.352;2022-09-03T07:01:27;94716.97;;;13.05;72.24
41234;BME280;26968;42.686;23.352;2022-09-03T07:03:57;94877.13;;;14.34;71.75
41234;BME280;26968;42.686;23.352;2022-09-03T07:06:24;95357.16;;;17.31;71.69
41234;BME280;26968;42.686;23.352;2022-09-03T07:08:51;95055.22;;;15.31;71.42
41234;BME280;26968;42.686;23.352;2022-09-03T07:11:20;95363.78;;;17.43;71.36
41234;BME280;26968;42.686;23.352;2022-09-03T07:13:48;95326.22;;;17.25;71.69
41234;BME280;26968;42.686;23.352;2022-09-03T07:16:21;95370.00;;;17.60;71.14
41234;BME280;26968;42.686;23.352;2022-09-03T07:18:48;95248.56;;;16.86;71.43
41234;BME280;26968;42.686;23.352;2022-09-03T07:21:20;95283.72;;;16.93;71.32
41234;BME280;26968;42.686;23.352;2022-09-03T07:23:46;95370.13;;;17.55;71.44
41234;BME280;26968;42.686;23.352;2022-09-03T07:26:14;95373.34;;;17.66;71.61
41234;BME280;26968;42.686;23.352;2022-09-03T07:28:41;95343.63;;;17.54;70.22
41234;BME280;26968;42.686;23.352;2022-09-03T07:31:13;95387.25;;;17.94;70.05
41234;BME280;26968;42.686;23.352;2022-09-03T07:33:39;95071.88;;;15.90;69.95
41234;BME280;26968;42.686;23.352;2022-09-03T07:36:10;95333.53;;;17.59;69.55
41234;BME280;26968;42.686;23.352;2022-09-03T07:38:39;95389.00;;;18.16;69.25
41234;BME280;26968;42.686;23.352;2022-09-03T07:41:06;95384.25;;;18.12;69.03
41234;BME280;26968;42.686;23.352;2022-09-03T07:43:35;95383.47;;;18.29;69.40
41234;BME280;26968;42.686;23.352;2022-09-03T07:46:00;95384.53;;;18.54;68.24
41234;BME280;26968;42.686;23.352;2022-09-03T07:48:26;95352.53;;;18.23;67.77
41234;BME280;26968;42.686;23.352;2022-09-03T07:50:57;95385.50;;;18.75;66.96
41234;BME280;26968;42.686;23.352;2022-09-03T07:53:26;95381.53;;;18.73;66.82
41234;BME280;26968;42.686;23.352;2022-09-03T07:55:52;95104.72;;;17.04;66.43
41234;BME280;26968;42.686;23.352;2022-09-03T07:58:18;95081.56;;;16.90;66.11
41234;BME280;26968;42.686;23.352;2022-09-03T08:00:49;95320.94;;;18.29;66.79
41234;BME280;26968;42.686;23.352;2022-09-03T08:03:14;95143.81;;;17.22;66.60
41234;BME280;26968;42.686;23.352;2022-09-03T08:05:41;95367.00;;;18.74;65.74
41234;BME280;26968;42.686;23.352;2022-09-03T08:08:06;95394.75;;;18.95;65.70
41234;BME280;26968;42.686;23.352;2022-09-03T08:10:36;95313.00;;;18.49;65.65
41234;BME280;26968;42.686;23.352;2022-09-03T08:13:02;95086.59;;;16.92;65.17
41234;BME280;26968;42.686;23.352;2022-09-03T08:15:30;95316.00;;;18.48;65.36
41234;BME280;26968;42.686;23.352;2022-09-03T08:17:56;95331.03;;;18.58;65.51
41234;BME280;26968;42.686;23.352;2022-09-03T08:20:21;95370.31;;;18.79;65.39
41234;BME280;26968;42.686;23.352;2022-09-03T08:22:47;95378.22;;;18.76;65.31
41234;BME280;26968;42.686;23.352;2022-09-03T08:25:13;95281.78;;;18.28;65.87
41234;BME280;26968;42.686;23.352;2022-09-03T08:27:38;95333.19;;;18.73;64.80
41234;BME280;26968;42.686;23.352;2022-09-03T08:30:04;95363.56;;;19.11;63.93
41234;BME280;26968;42.686;23.352;2022-09-03T08:32:33;95397.00;;;19.31;63.84
41234;BME280;26968;42.686;23.352;2022-09-03T08:34:59;95239.94;;;18.27;64.27
41234;BME280;26968;42.686;23.352;2022-09-03T08:37:24;95392.84;;;19.42;64.20
41234;BME280;26968;42.686;23.352;2022-09-03T08:39:53;95367.75;;;19.30;63.98
41234;BME280;26968;42.686;23.352;2022-09-03T08:45:05;95264.78;;;19.00;63.76
41234;BME280;26968;42.686;23.352;2022-09-03T08:47:48;95352.97;;;19.53;62.79
41234;BME280;26968;42.686;23.352;2022-09-03T08:50:21;95379.69;;;19.79;63.36
41234;BME280;26968;42.686;23.352;2022-09-03T08:52:49;95381.28;;;19.80;62.35
41234;BME280;26968;42.686;23.352;2022-09-03T08:55:30;95357.56;;;19.44;62.46
41234;BME280;26968;42.686;23.352;2022-09-03T08:58:18;95229.13;;;18.52;62.83
41234;BME280;26968;42.686;23.352;2022-09-03T09:09:01;95338.59;;;19.70;61.13
41234;BME280;26968;42.686;23.352;2022-09-03T09:14:34;95392.63;;;20.35;60.82
41234;BME280;26968;42.686;23.352;2022-09-03T09:20:17;95218.97;;;18.96;61.81
41234;BME280;26968;42.686;23.352;2022-09-03T09:22:54;95392.50;;;20.02;61.29
41234;BME280;26968;42.686;23.352;2022-09-03T09:25:23;95322.38;;;19.99;60.23
41234;BME280;26968;42.686;23.352;2022-09-03T09:28:20;95383.31;;;20.45;60.21
41234;BME280;26968;42.686;23.352;2022-09-03T09:30:48;95315.63;;;20.14;59.14
41234;BME280;26968;42.686;23.352;2022-09-03T09:33:15;95221.16;;;19.53;58.71
41234;BME280;26968;42.686;23.352;2022-09-03T09:35:41;95399.91;;;20.68;58.83
41234;BME280;26968;42.686;23.352;2022-09-03T09:38:09;95155.66;;;19.28;59.51
41234;BME280;26968;42.686;23.352;2022-09-03T09:40:37;95395.53;;;21.08;58.88
41234;BME280;26968;42.686;23.352;2022-09-03T09:43:14;95265.84;;;20.20;58.92
41234;BME280;26968;42.686;23.352;2022-09-03T09:45:42;95141.69;;;19.55;59.33
41234;BME280;26968;42.686;23.352;2022-09-03T09:48:59;95322.72;;;21.08;57.82
41234;BME280;26968;42.686;23.352;2022-09-03T09:51:29;95281.97;;;20.98;58.16
41234;BME280;26968;42.686;23.352;2022-09-03T09:56:38;95402.13;;;21.56;56.83
41234;BME280;26968;42.686;23.352;2022-09-03T09:59:09;95409.75;;;21.90;55.60
41234;BME280;26968;42.686;23.352;2022-09-03T10:01:42;95391.75;;;22.47;54.39
41234;BME280;26968;42.686;23.352;2022-09-03T10:04:11;95324.84;;;22.56;52.52
41234;BME280;26968;42.686;23.352;2022-09-03T10:06:37;95398.59;;;23.59;50.79
41234;BME280;26968;42.686;23.352;2022-09-03T10:09:21;95290.59;;;23.38;49.78
41234;BME280;26968;42.686;23.352;2022-09-03T10:14:35;95370.25;;;25.46;47.05
41234;BME280;26968;42.686;23.352;2022-09-03T10:17:37;95353.09;;;25.91;45.30
41234;BME280;26968;42.686;23.352;2022-09-03T10:20:14;95295.78;;;26.29;43.29
41234;BME280;26968;42.686;23.352;2022-09-03T10:23:26;95383.69;;;27.48;42.31
41234;BME280;26968;42.686;23.352;2022-09-03T10:28:37;95159.34;;;24.97;43.28
41234;BME280;26968;42.686;23.352;2022-09-03T10:31:14;95381.56;;;27.27;41.50
41234;BME280;26968;42.686;23.352;2022-09-03T10:33:51;95382.47;;;27.42;40.58
41234;BME280;26968;42.686;23.352;2022-09-03T10:39:28;95390.31;;;27.10;41.15
41234;BME280;26968;42.686;23.352;2022-09-03T10:47:43;95308.97;;;27.01;40.23
41234;BME280;26968;42.686;23.352;2022-09-03T10:50:27;95378.91;;;27.82;39.46
41234;BME280;26968;42.686;23.352;2022-09-03T11:01:26;95392.81;;;27.70;39.54
41234;BME280;26968;42.686;23.352;2022-09-03T11:04:17;95382.72;;;27.70;39.82
41234;BME280;26968;42.686;23.352;2022-09-03T11:06:51;95373.84;;;26.96;40.67
41234;BME280;26968;42.686;23.352;2022-09-03T11:09:28;95377.78;;;26.98;41.24
41234;BME280;26968;42.686;23.352;2022-09-03T11:12:02;95351.13;;;26.47;42.33
41234;BME280;26968;42.686;23.352;2022-09-03T11:14:44;95346.31;;;26.67;40.82
41234;BME280;26968;42.686;23.352;2022-09-03T11:17:17;95308.44;;;26.85;40.39
41234;BME280;26968;42.686;23.352;2022-09-03T11:20:20;95385.78;;;27.61;40.18
41234;BME280;26968;42.686;23.352;2022-09-03T11:22:49;95322.34;;;26.80;40.28
41234;BME280;26968;42.686;23.352;2022-09-03T11:25:19;95392.34;;;27.57;39.89
41234;BME280;26968;42.686;23.352;2022-09-03T11:28:09;95395.69;;;27.84;39.71
41234;BME280;26968;42.686;23.352;2022-09-03T11:33:23;95338.19;;;28.07;38.80
41234;BME280;26968;42.686;23.352;2022-09-03T11:35:58;95345.81;;;28.45;38.40
41234;BME280;26968;42.686;23.352;2022-09-03T11:38:28;95254.56;;;26.61;40.64
41234;BME280;26968;42.686;23.352;2022-09-03T11:43:31;95384.59;;;27.59;40.54
41234;BME280;26968;42.686;23.352;2022-09-03T11:46:13;95385.34;;;28.11;39.83
41234;BME280;26968;42.686;23.352;2022-09-03T11:49:10;95255.97;;;27.36;39.39
41234;BME280;26968;42.686;23.352;2022-09-03T11:51:39;95382.81;;;28.42;39.15
41234;BME280;26968;42.686;23.352;2022-09-03T11:56:38;95325.28;;;28.76;37.15
41234;BME280;26968;42.686;23.352;2022-09-03T11:59:16;95271.19;;;28.06;37.43
41234;BME280;26968;42.686;23.352;2022-09-03T12:01:48;95353.13;;;28.27;38.69
41234;BME280;26968;42.686;23.352;2022-09-03T12:04:19;95377.28;;;28.28;38.73
41234;BME280;26968;42.686;23.352;2022-09-03T12:09:47;95371.16;;;27.40;40.86
41234;BME280;26968;42.686;23.352;2022-09-03T12:15:53;95363.53;;;27.56;40.40
41234;BME280;26968;42.686;23.352;2022-09-03T12:18:29;95319.84;;;27.01;40.47
41234;BME280;26968;42.686;23.352;2022-09-03T12:23:31;95365.91;;;27.17;40.51
41234;BME280;26968;42.686;23.352;2022-09-03T12:26:02;95359.34;;;26.84;41.09
41234;BME280;26968;42.686;23.352;2022-09-03T12:28:29;95060.91;;;24.70;41.88
41234;BME280;26968;42.686;23.352;2022-09-03T12:31:15;95287.13;;;26.94;41.19
41234;BME280;26968;42.686;23.352;2022-09-03T12:33:59;95356.69;;;27.76;40.31
41234;BME280;26968;42.686;23.352;2022-09-03T12:36:34;95253.00;;;26.63;41.13
41234;BME280;26968;42.686;23.352;2022-09-03T12:39:26;95276.78;;;27.10;40.04
41234;BME280;26968;42.686;23.352;2022-09-03T12:44:38;95322.78;;;26.85;42.05
41234;BME280;26968;42.686;23.352;2022-09-03T12:47:13;95348.56;;;27.36;40.96
41234;BME280;26968;42.686;23.352;2022-09-03T12:49:41;95200.91;;;27.02;40.38
41234;BME280;26968;42.686;23.352;2022-09-03T12:52:10;95345.44;;;28.50;38.91
41234;BME280;26968;42.686;23.352;2022-09-03T12:57:35;95308.94;;;27.96;39.51
41234;BME280;26968;42.686;23.352;2022-09-03T13:00:06;95342.53;;;27.53;40.42
41234;BME280;26968;42.686;23.352;2022-09-03T13:02:39;95347.28;;;27.22;39.58
41234;BME280;26968;42.686;23.352;2022-09-03T13:05:11;95328.53;;;27.58;39.06
41234;BME280;26968;42.686;23.352;2022-09-03T13:07:39;95284.34;;;27.31;38.57
41234;BME280;26968;42.686;23.352;2022-09-03T13:10:11;95279.56;;;27.14;39.25
41234;BME280;26968;42.686;23.352;2022-09-03T13:12:45;95202.47;;;27.03;39.46
41234;BME280;26968;42.686;23.352;2022-09-03T13:15:22;95321.75;;;27.92;39.33
41234;BME280;26968;42.686;23.352;2022-09-03T13:21:03;95277.31;;;27.26;39.26
41234;BME280;26968;42.686;23.352;2022-09-03T13:29:50;95314.53;;;27.59;39.85
41234;BME280;26968;42.686;23.352;2022-09-03T13:37:47;95310.69;;;28.40;37.45
41234;BME280;26968;42.686;23.352;2022-09-03T13:40:15;95306.44;;;28.46;37.26
41234;BME280;26968;42.686;23.352;2022-09-03T13:45:45;95246.47;;;27.70;37.76
41234;BME280;26968;42.686;23.352;2022-09-03T13:48:20;95264.97;;;28.05;37.30
41234;BME280;26968;42.686;23.352;2022-09-03T13:51:37;95254.38;;;27.93;37.47
41234;BME280;26968;42.686;23.352;2022-09-03T13:56:49;95310.88;;;27.41;38.38
41234;BME280;26968;42.686;23.352;2022-09-03T14:02:49;95261.72;;;26.39;39.43
41234;BME280;26968;42.686;23.352;2022-09-03T14:10:49;94974.00;;;25.23;37.94
41234;BME280;26968;42.686;23.352;2022-09-03T14:13:23;95301.38;;;27.21;38.97
41234;BME280;26968;42.686;23.352;2022-09-03T14:18:44;95317.50;;;26.63;39.68
41234;BME280;26968;42.686;23.352;2022-09-03T14:21:19;95237.16;;;26.69;39.16
41234;BME280;26968;42.686;23.352;2022-09-03T14:26:33;95314.72;;;27.37;39.04
41234;BME280;26968;42.686;23.352;2022-09-03T14:29:03;95291.25;;;27.73;38.71
41234;BME280;26968;42.686;23.352;2022-09-03T14:34:14;95262.81;;;27.70;37.47
41234;BME280;26968;42.686;23.352;2022-09-03T14:47:57;95301.66;;;28.18;37.06
41234;BME280;26968;42.686;23.352;2022-09-03T14:51:25;95274.59;;;27.81;37.91
41234;BME280;26968;42.686;23.352;2022-09-03T14:53:49;95312.28;;;28.48;38.49
41234;BME280;26968;42.686;23.352;2022-09-03T14:56:43;95312.84;;;29.10;39.64
41234;BME280;26968;42.686;23.352;2022-09-03T15:01:46;95303.13;;;29.38;39.03
41234;BME280;26968;42.686;23.352;2022-09-03T15:07:35;95312.09;;;29.49;39.19
41234;BME280;26968;42.686;23.352;2022-09-03T15:13:08;95280.75;;;30.07;37.61
41234;BME280;26968;42.686;23.352;2022-09-03T15:29:32;95324.03;;;31.68;35.74
41234;BME280;26968;42.686;23.352;2022-09-03T15:32:21;95193.25;;;30.76;34.87
41234;BME280;26968;42.686;23.352;2022-09-03T15:37:39;95323.16;;;31.34;35.43
41234;BME280;26968;42.686;23.352;2022-09-03T15:43:06;95294.47;;;31.45;35.56
41234;BME280;26968;42.686;23.352;2022-09-03T15:45:37;95253.09;;;30.78;35.78
41234;BME280;26968;42.686;23.352;2022-09-03T15:48:20;95068.94;;;29.49;35.75
41234;BME280;26968;42.686;23.352;2022-09-03T15:56:54;95329.00;;;30.74;36.59
41234;BME280;26968;42.686;23.352;2022-09-03T15:59:40;95356.03;;;30.54;37.12
41234;BME280;26968;42.686;23.352;2022-09-03T16:02:39;95203.59;;;29.39;37.32
41234;BME280;26968;42.686;23.352;2022-09-03T16:05:19;95305.75;;;30.19;37.08
41234;BME280;26968;42.686;23.352;2022-09-03T16:11:20;95294.13;;;29.20;38.45
41234;BME280;26968;42.686;23.352;2022-09-03T16:21:50;95381.06;;;28.13;41.08
41234;BME280;26968;42.686;23.352;2022-09-03T16:24:25;95281.91;;;27.19;41.78
41234;BME280;26968;42.686;23.352;2022-09-03T16:27:01;95252.88;;;26.49;43.02
41234;BME280;26968;42.686;23.352;2022-09-03T16:29:29;95293.28;;;26.50;43.36
41234;BME280;26968;42.686;23.352;2022-09-03T16:32:22;95390.06;;;26.55;44.73
41234;BME280;26968;42.686;23.352;2022-09-03T16:35:15;95396.66;;;26.24;45.43
41234;BME280;26968;42.686;23.352;2022-09-03T16:40:17;95398.81;;;25.85;46.34
41234;BME280;26968;42.686;23.352;2022-09-03T16:45:59;95400.25;;;25.56;46.85
41234;BME280;26968;42.686;23.352;2022-09-03T16:49:11;95401.81;;;25.31;47.65
41234;BME280;26968;42.686;23.352;2022-09-03T17:00:08;95262.78;;;23.92;48.60
41234;BME280;26968;42.686;23.352;2022-09-03T17:05:42;95310.25;;;23.86;49.77